Time;durP1;ratioP1;P1;durP2;ratioP2;P2;SDS_P1;SDS_P2;PMS_P1;PMS_P2;Temp;Humidity;BMP_temperature;BMP_pressure;BME280_temperature;BME280_humidity;BME280_pressure;Samples;Min_cycle;Max_cycle;Signal;HPM_P1;HPM_P2
2021/03/28 00:04:14;;;;;;;18.23;8.00;;;;;;;5.84;69.38;98071.04;1873414;76;26344;-82
2021/03/28 00:07:03;;;;;;;25.50;10.15;;;;;;;5.76;69.37;98080.75;1852738;77;25951;-81
2021/03/28 00:09:42;;;;;;;25.08;10.98;;;;;;;5.76;69.46;98086.61;1852730;77;28664;-79
2021/03/28 00:12:27;;;;;;;17.75;8.38;;;;;;;5.73;69.68;98099.83;1852608;77;25729;-82
2021/03/28 00:14:58;;;;;;;18.23;7.85;;;;;;;5.67;69.75;98088.95;1852474;77;25708;-82
2021/03/28 00:17:52;;;;;;;20.45;8.53;;;;;;;5.58;69.92;98077.84;1852904;77;25755;-81
2021/03/28 00:20:25;;;;;;;19.60;8.38;;;;;;;5.60;70.12;98071.83;1852807;77;25330;-81
2021/03/28 00:23:19;;;;;;;16.37;7.97;;;;;;;5.62;70.14;98084.56;1852667;76;27471;-81
2021/03/28 00:26:01;;;;;;;12.73;7.00;;;;;;;5.69;70.15;98085.08;1852710;77;26124;-82
2021/03/28 00:28:45;;;;;;;12.78;7.15;;;;;;;5.73;70.16;98075.72;1852881;77;25716;-81
2021/03/28 00:31:32;;;;;;;13.45;6.97;;;;;;;5.69;70.13;98072.18;1852733;77;25849;-81
2021/03/28 00:34:22;;;;;;;14.25;8.13;;;;;;;5.61;70.19;98066.31;1852706;77;25830;-81
2021/03/28 00:37:11;;;;;;;18.37;9.75;;;;;;;5.58;70.26;98065.80;1852611;77;27486;-80
2021/03/28 00:39:58;;;;;;;15.90;9.75;;;;;;;5.57;70.54;98061.44;1852686;77;25900;-81
2021/03/28 00:42:48;;;;;;;27.07;14.23;;;;;;;5.55;70.71;98066.98;1852696;77;25828;-79
2021/03/28 00:45:42;;;;;;;28.27;13.25;;;;;;;5.51;70.76;98062.11;1852616;77;25693;-79
2021/03/28 00:48:26;;;;;;;34.78;15.05;;;;;;;5.49;70.84;98066.78;1852290;76;25697;-79
2021/03/28 00:51:17;;;;;;;30.08;14.30;;;;;;;5.52;70.90;98065.13;1852625;77;27496;-78
2021/03/28 00:54:16;;;;;;;25.80;12.90;;;;;;;5.55;70.94;98050.92;1852515;77;25759;-80
2021/03/28 00:56:52;;;;;;;27.25;12.80;;;;;;;5.49;70.95;98034.66;1819817;77;25697;-78
2021/03/28 00:59:30;;;;;;;23.90;12.47;;;;;;;5.52;71.13;98055.25;1852717;77;25700;-80
2021/03/28 01:02:06;;;;;;;22.13;12.60;;;;;;;5.56;71.16;98063.28;1852581;77;25716;-80
2021/03/28 01:04:54;;;;;;;25.62;13.32;;;;;;;5.54;71.08;98063.13;1852681;77;27457;-81
2021/03/28 01:07:30;;;;;;;27.55;12.88;;;;;;;5.50;71.13;98067.97;1852579;77;25575;-79
2021/03/28 01:10:19;;;;;;;21.73;11.85;;;;;;;5.45;71.27;98071.63;1851977;77;25772;-80
2021/03/28 01:13:35;;;;;;;25.77;13.55;;;;;;;5.39;71.30;98069.61;1852651;77;25670;-80
2021/03/28 01:16:23;;;;;;;25.57;12.63;;;;;;;5.39;71.41;98073.63;1852187;77;25720;-80
2021/03/28 01:19:18;;;;;;;27.95;13.70;;;;;;;5.40;71.51;98069.45;1852027;77;27486;-80
2021/03/28 01:22:03;;;;;;;27.73;13.80;;;;;;;5.35;71.53;98066.41;1852050;77;26296;-79
2021/03/28 01:24:44;;;;;;;30.65;15.63;;;;;;;5.29;71.63;98071.59;1852152;77;25311;-80
2021/03/28 01:27:32;;;;;;;25.40;14.33;;;;;;;5.28;71.69;98076.10;1852040;77;25747;-80
2021/03/28 01:30:07;;;;;;;30.70;15.85;;;;;;;5.31;71.78;98074.42;1852154;77;25701;-80
2021/03/28 01:32:59;;;;;;;34.85;17.25;;;;;;;5.33;71.76;98079.11;1852094;76;28343;-79
2021/03/28 01:35:38;;;;;;;32.10;16.70;;;;;;;5.32;71.76;98082.79;1851977;77;26134;-80
2021/03/28 01:38:19;;;;;;;29.98;15.32;;;;;;;5.29;71.83;98088.48;1850965;77;25730;-79
2021/03/28 01:41:01;;;;;;;29.42;15.38;;;;;;;5.29;71.86;98088.48;1824234;77;26196;-80
2021/03/28 01:44:09;;;;;;;33.13;17.23;;;;;;;5.25;72.04;98083.11;1824171;78;25713;-79
2021/03/28 01:47:00;;;;;;;39.95;19.00;;;;;;;5.15;72.05;98073.03;1824102;78;30003;-79
2021/03/28 01:50:00;;;;;;;37.20;17.50;;;;;;;5.17;72.20;98089.78;1824070;78;25718;-78
2021/03/28 01:52:54;;;;;;;38.92;19.42;;;;;;;5.16;72.33;98076.05;1823322;78;25741;-79
2021/03/28 01:55:33;;;;;;;32.98;17.98;;;;;;;5.15;72.42;98077.05;1824060;78;25759;-79
2021/03/28 01:58:44;;;;;;;39.83;19.98;;;;;;;5.13;72.44;98076.87;1824102;78;25296;-79
2021/03/28 02:01:44;;;;;;;38.40;20.65;;;;;;;5.06;72.41;98070.83;1824052;78;27563;-77
2021/03/28 02:04:23;;;;;;;33.15;18.75;;;;;;;5.06;72.59;98080.70;1822443;77;25697;-78
2021/03/28 02:07:17;;;;;;;35.25;19.32;;;;;;;5.02;72.61;98073.48;1821176;78;25763;-80
2021/03/28 02:10:08;;;;;;;33.55;18.02;;;;;;;5.02;72.77;98083.34;1821967;78;25932;-79
2021/03/28 02:13:17;;;;;;;35.00;19.23;;;;;;;5.01;72.85;98090.53;1763200;78;26108;-79
2021/03/28 02:15:50;;;;;;;27.05;16.20;;;;;;;5.01;72.87;98080.33;1821703;78;27493;-79
2021/03/28 02:19:02;;;;;;;24.82;15.23;;;;;;;4.99;72.91;98076.47;1821988;78;25725;-78
2021/03/28 02:21:53;;;;;;;32.23;19.27;;;;;;;5.02;72.92;98075.31;1822274;77;25722;-79
2021/03/28 02:24:55;;;;;;;35.58;20.23;;;;;;;5.03;72.93;98079.67;1822039;78;26152;-80
2021/03/28 02:27:43;;;;;;;31.20;19.30;;;;;;;5.02;72.93;98085.52;1822057;77;25811;-79
2021/03/28 02:30:34;;;;;;;29.82;16.97;;;;;;;5.02;73.10;98088.20;1822096;78;28522;-80
2021/03/28 02:33:29;;;;;;;30.25;16.57;;;;;;;5.03;73.10;98103.26;1821547;78;25389;-78
2021/03/28 02:36:37;;;;;;;26.25;16.17;;;;;;;5.00;73.18;98105.41;1822090;77;26270;-78
2021/03/28 02:39:20;;;;;;;24.90;15.63;;;;;;;4.98;73.24;98098.03;1821933;78;25724;-80
2021/03/28 02:42:18;;;;;;;24.72;15.50;;;;;;;4.91;73.36;98106.36;1805646;78;25644;-80
2021/03/28 02:45:21;;;;;;;25.05;16.12;;;;;;;4.86;73.42;98103.31;1821914;77;27482;-80
2021/03/28 02:48:24;;;;;;;24.45;16.37;;;;;;;4.83;73.55;98107.14;1724127;82;25918;-80
2021/03/28 02:51:09;;;;;;;25.92;16.32;;;;;;;4.81;73.67;98104.30;1724143;83;25926;-79
2021/03/28 02:53:50;;;;;;;23.65;16.37;;;;;;;4.77;73.67;98113.13;1724111;83;25788;-81
2021/03/28 02:57:03;;;;;;;19.83;14.70;;;;;;;4.80;73.69;98121.35;1723369;83;25755;-81
2021/03/28 03:00:07;;;;;;;20.73;14.03;;;;;;;4.85;73.53;98123.88;1724439;83;27420;-81
2021/03/28 03:06:09;;;;;;;20.43;13.93;;;;;;;4.57;72.92;98125.05;1873455;76;25659;-82
2021/03/28 03:09:12;;;;;;;20.05;13.85;;;;;;;4.45;72.88;98121.78;1852692;77;25745;-82
2021/03/28 03:12:18;;;;;;;21.23;14.65;;;;;;;4.41;73.03;98123.08;1852808;77;27686;-80
2021/03/28 03:15:29;;;;;;;19.25;13.20;;;;;;;4.36;73.07;98122.69;1852584;76;25800;-78
2021/03/28 03:18:34;;;;;;;19.10;13.98;;;;;;;4.29;72.79;98133.67;1852709;77;25696;-80
2021/03/28 03:21:36;;;;;;;21.62;12.98;;;;;;;4.31;72.88;98153.06;1852775;77;25641;-78
2021/03/28 03:24:58;;;;;;;17.60;10.70;;;;;;;4.30;72.72;98166.09;1852643;77;25677;-78
2021/03/28 03:28:06;;;;;;;13.40;9.20;;;;;;;4.16;72.35;98179.48;1852697;77;27473;-78
2021/03/28 03:31:00;;;;;;;13.50;8.20;;;;;;;3.99;72.33;98177.13;1852501;77;25728;-80
2021/03/28 03:33:38;;;;;;;10.10;7.08;;;;;;;3.90;72.22;98187.39;1852685;77;25800;-82
2021/03/28 03:36:29;;;;;;;11.35;7.90;;;;;;;3.84;72.19;98177.33;1851359;77;25717;-81
2021/03/28 03:39:19;;;;;;;9.78;7.87;;;;;;;3.74;72.18;98181.05;1852721;77;25664;-80
2021/03/28 03:42:34;;;;;;;10.98;7.95;;;;;;;3.71;72.36;98174.17;1852672;77;27481;-78
2021/03/28 03:45:59;;;;;;;11.50;8.75;;;;;;;3.71;72.46;98178.67;1852507;77;25771;-79
2021/03/28 03:48:44;;;;;;;10.45;7.58;;;;;;;3.72;72.51;98183.03;1818428;77;25760;-78
2021/03/28 03:51:38;;;;;;;11.38;7.00;;;;;;;3.61;72.38;98192.09;1851028;77;25696;-79
2021/03/28 03:54:16;;;;;;;11.80;7.75;;;;;;;3.60;72.54;98198.41;1852677;76;26483;-77
2021/03/28 03:57:23;;;;;;;11.90;7.15;;;;;;;3.60;72.54;98198.41;1852367;77;28412;-79
2021/03/28 04:00:17;;;;;;;12.85;7.20;;;;;;;3.62;72.39;98211.13;1852501;77;25731;-79
2021/03/28 04:03:14;;;;;;;12.10;6.67;;;;;;;3.66;72.44;98220.50;1852638;77;25701;-76
2021/03/28 04:06:21;;;;;;;16.00;7.60;;;;;;;3.67;72.56;98228.02;1843801;77;26178;-79
2021/03/28 04:09:03;;;;;;;11.65;7.62;;;;;;;3.64;72.73;98230.48;1843835;77;25740;-79
2021/03/28 04:11:53;;;;;;;15.32;9.60;;;;;;;3.65;72.77;98241.50;1844007;77;27693;-76
2021/03/28 04:14:57;;;;;;;21.75;15.40;;;;;;;3.68;72.79;98246.56;1843801;77;25751;-78
2021/03/28 04:18:04;;;;;;;16.50;10.98;;;;;;;3.53;72.19;98243.52;1833712;77;25765;-78
2021/03/28 04:20:59;;;;;;;16.48;11.08;;;;;;;3.39;72.64;98255.16;1843017;77;25721;-79
2021/03/28 04:23:47;;;;;;;13.05;10.45;;;;;;;3.38;72.66;98252.17;1811529;77;26390;-79
2021/03/28 04:29:17;;;;;;;18.50;10.82;;;;;;;3.35;72.80;98264.47;1849588;76;34778;-80
2021/03/28 04:31:49;;;;;;;20.60;10.63;;;;;;;3.33;73.02;98263.27;1820229;78;25706;-79
2021/03/28 04:34:49;;;;;;;13.40;9.08;;;;;;;3.38;72.71;98268.19;1819847;78;27539;-80
2021/03/28 04:37:59;;;;;;;12.95;8.73;;;;;;;3.36;72.46;98267.00;1820090;78;25651;-79
2021/03/28 04:41:02;;;;;;;15.28;7.65;;;;;;;3.37;72.24;98270.51;1819915;78;25763;-80
2021/03/28 04:44:23;;;;;;;16.93;7.53;;;;;;;3.31;71.91;98277.73;1726659;82;25844;-80
2021/03/28 04:47:33;;;;;;;12.03;6.85;;;;;;;3.27;71.69;98282.52;1726580;83;25705;-80
2021/03/28 04:50:29;;;;;;;11.05;5.90;;;;;;;3.23;71.62;98282.48;1726737;83;27506;-79
2021/03/28 04:53:29;;;;;;;10.08;6.50;;;;;;;3.25;71.66;98292.03;1726614;83;26064;-80
2021/03/28 04:59:16;;;;;;;11.38;6.22;;;;;;;3.38;71.64;98295.69;1849512;76;34851;-80
2021/03/28 05:02:30;;;;;;;9.10;5.78;;;;;;;3.34;71.44;98302.32;1819701;78;25730;-80
2021/03/28 05:05:20;;;;;;;10.60;6.60;;;;;;;3.35;71.36;98298.67;1820107;78;27606;-80
2021/03/28 05:08:22;;;;;;;10.38;5.85;;;;;;;3.33;71.25;98299.80;1819230;78;25766;-78
2021/03/28 05:11:21;;;;;;;8.13;4.23;;;;;;;3.32;71.22;98300.78;1793509;78;26257;-78
2021/03/28 05:14:32;;;;;;;14.10;6.33;;;;;;;3.23;71.28;98308.67;1820144;78;25662;-78
2021/03/28 05:17:35;;;;;;;12.75;7.50;;;;;;;3.14;71.25;98311.36;1819556;78;25797;-78
2021/03/28 05:20:29;;;;;;;14.25;7.80;;;;;;;3.09;71.29;98313.59;1820333;77;27495;-78
2021/03/28 05:23:19;;;;;;;12.18;7.25;;;;;;;3.04;71.33;98316.68;1818489;78;25660;-78
2021/03/28 05:26:08;;;;;;;15.60;7.70;;;;;;;2.94;71.48;98318.52;1794885;78;25755;-78
2021/03/28 05:29:22;;;;;;;18.30;8.85;;;;;;;2.88;71.52;98320.44;1820092;78;26064;-78
2021/03/28 05:32:21;;;;;;;15.25;9.80;;;;;;;2.83;71.65;98325.33;1820179;78;25680;-78
2021/03/28 05:34:57;;;;;;;15.08;8.58;;;;;;;2.76;71.73;98329.55;1820065;78;27568;-77
2021/03/28 05:37:58;;;;;;;14.68;8.35;;;;;;;2.72;71.94;98342.31;1819906;77;25781;-78
2021/03/28 05:40:40;;;;;;;15.60;9.03;;;;;;;2.68;72.00;98341.39;1820103;78;25801;-78
2021/03/28 05:43:28;;;;;;;15.98;9.23;;;;;;;2.70;72.24;98347.42;1820199;78;36016;-78
2021/03/28 05:46:34;;;;;;;85.47;30.05;;;;;;;2.75;72.30;98346.53;1794133;78;26029;-78
2021/03/28 05:49:36;;;;;;;55.08;27.80;;;;;;;2.79;72.30;98351.91;1820084;77;27545;-78
2021/03/28 05:52:39;;;;;;;29.55;16.20;;;;;;;2.81;72.27;98350.80;1783112;80;26252;-78
2021/03/28 05:55:23;;;;;;;15.40;10.25;;;;;;;2.86;72.27;98360.57;1784269;80;25835;-77
2021/03/28 05:58:27;;;;;;;15.68;10.88;;;;;;;2.93;72.26;98366.17;1750980;81;25652;-78
2021/03/28 06:01:21;;;;;;;21.70;11.48;;;;;;;2.96;72.20;98361.05;1748201;80;25747;-77
2021/03/28 06:04:03;;;;;;;34.45;17.32;;;;;;;3.00;72.17;98364.64;1751435;81;27483;-78
2021/03/28 06:07:05;;;;;;;44.25;19.90;;;;;;;3.07;72.27;98361.75;1777199;80;26142;-78
2021/03/28 06:10:01;;;;;;;38.90;17.85;;;;;;;3.09;72.15;98373.13;1751211;81;25687;-77
2021/03/28 06:13:01;;;;;;;39.18;18.10;;;;;;;3.14;72.06;98372.20;1783510;80;25753;-78
2021/03/28 06:15:49;;;;;;;145.02;96.55;;;;;;;3.24;72.14;98381.06;1750044;80;25547;-78
2021/03/28 06:18:43;;;;;;;55.70;30.08;;;;;;;3.29;72.06;98378.44;1782955;80;27494;-78
2021/03/28 06:21:41;;;;;;;30.40;15.88;;;;;;;3.34;72.03;98386.88;1750768;81;25775;-78
2021/03/28 06:24:32;;;;;;;21.65;10.75;;;;;;;3.32;71.96;98380.83;1782292;79;25767;-78
2021/03/28 06:27:30;;;;;;;14.78;8.68;;;;;;;3.34;71.99;98386.88;1711999;80;26213;-78
2021/03/28 06:30:29;;;;;;;16.02;8.50;;;;;;;3.38;71.58;98390.95;1746640;81;25766;-78
2021/03/28 06:33:31;;;;;;;13.90;8.50;;;;;;;3.48;71.37;98390.45;1756600;80;27484;-78
2021/03/28 06:36:16;;;;;;;13.43;8.03;;;;;;;3.54;71.35;98392.03;1756032;81;25764;-78
2021/03/28 06:39:38;;;;;;;12.53;7.80;;;;;;;3.63;71.68;98395.66;1755813;81;25735;-79
2021/03/28 06:42:39;;;;;;;15.05;8.03;;;;;;;3.70;71.53;98400.80;1755818;81;25731;-79
2021/03/28 06:45:50;;;;;;;14.90;8.93;;;;;;;3.66;71.03;98402.55;1756478;81;25874;-78
2021/03/28 06:48:59;;;;;;;17.73;10.05;;;;;;;3.71;71.10;98406.48;1756500;80;28501;-78
2021/03/28 06:52:25;;;;;;;14.28;9.40;;;;;;;3.75;71.03;98410.53;1709572;83;25778;-79
2021/03/28 06:55:20;;;;;;;15.45;10.20;;;;;;;3.77;71.01;98413.06;1693600;84;25831;-78
2021/03/28 06:58:32;;;;;;;15.78;9.15;;;;;;;3.81;71.03;98415.80;1716833;82;25932;-78
2021/03/28 07:01:10;;;;;;;12.95;8.88;;;;;;;3.83;70.83;98413.84;1698958;84;26732;-79
2021/03/28 07:06:47;;;;;;;24.98;12.88;;;;;;;3.92;70.93;98415.14;1873410;76;34760;-80
2021/03/28 07:09:49;;;;;;;24.32;13.10;;;;;;;3.88;70.67;98415.08;1851154;77;25731;-81
2021/03/28 07:12:54;;;;;;;30.23;14.68;;;;;;;3.96;70.62;98417.88;1852776;77;27534;-81
2021/03/28 07:15:49;;;;;;;35.20;16.27;;;;;;;4.02;70.50;98424.95;1822286;77;25861;-79
2021/03/28 07:18:37;;;;;;;34.73;16.48;;;;;;;4.10;70.41;98420.58;1852724;76;25688;-79
2021/03/28 07:21:16;;;;;;;32.73;16.37;;;;;;;4.16;70.44;98419.98;1852721;77;25775;-79
2021/03/28 07:24:08;;;;;;;38.58;18.15;;;;;;;4.22;70.07;98424.76;1852739;77;25792;-79
2021/03/28 07:27:19;;;;;;;33.73;17.77;;;;;;;4.25;69.98;98430.28;1852877;77;27654;-79
2021/03/28 07:30:17;;;;;;;24.45;13.10;;;;;;;4.34;69.87;98423.58;1852017;77;25836;-79
2021/03/28 07:33:12;;;;;;;27.65;14.45;;;;;;;4.45;69.69;98423.87;1852667;77;25727;-79
2021/03/28 07:36:08;;;;;;;25.77;13.58;;;;;;;4.55;69.47;98426.00;1852729;77;26282;-79
2021/03/28 07:39:01;;;;;;;18.70;10.98;;;;;;;4.64;69.50;98431.79;1852766;77;25727;-80
2021/03/28 07:42:12;;;;;;;15.20;10.60;;;;;;;4.67;69.22;98424.81;1850417;77;26660;-80
2021/03/28 07:45:20;;;;;;;13.75;9.60;;;;;;;4.74;68.81;98428.20;1786080;80;25757;-79
2021/03/28 07:48:19;;;;;;;15.95;11.25;;;;;;;4.82;68.83;98427.83;1786302;80;25737;-79
2021/03/28 07:51:25;;;;;;;13.18;8.23;;;;;;;4.89;68.79;98433.41;1850919;77;25733;-79
2021/03/28 07:54:22;;;;;;;13.78;10.03;;;;;;;4.95;68.28;98431.48;1852772;77;25645;-79
2021/03/28 07:57:19;;;;;;;12.18;9.38;;;;;;;5.05;68.27;98438.94;1804235;77;27483;-79
2021/03/28 07:59:55;;;;;;;8.53;6.53;;;;;;;5.16;68.03;98441.39;1852591;77;26250;-79
2021/03/28 08:03:09;;;;;;;13.40;7.00;;;;;;;5.15;67.63;98446.40;1852667;76;25640;-79
2021/03/28 08:06:32;;;;;;;11.43;6.62;;;;;;;5.10;66.96;98447.34;1848780;77;26302;-79
2021/03/28 08:09:11;;;;;;;11.50;6.30;;;;;;;5.19;66.73;98444.27;1843862;77;25722;-77
2021/03/28 08:11:56;;;;;;;10.18;8.23;;;;;;;5.82;66.73;98439.60;1843733;77;27496;-78
2021/03/28 08:14:41;;;;;;;7.95;5.62;;;;;;;6.39;66.47;98437.33;1843645;77;25759;-80
2021/03/28 08:17:26;;;;;;;8.20;5.60;;;;;;;6.58;65.70;98443.78;1843375;77;25726;-81
2021/03/28 08:20:44;;;;;;;8.25;5.55;;;;;;;6.52;64.85;98446.28;1843090;77;26050;-81
2021/03/28 08:23:43;;;;;;;7.37;4.15;;;;;;;6.44;64.55;98453.77;1843113;77;25795;-80
2021/03/28 08:26:24;;;;;;;7.78;4.10;;;;;;;6.49;63.96;98450.12;1841728;77;27724;-81
2021/03/28 08:29:15;;;;;;;6.90;4.60;;;;;;;6.41;63.30;98450.05;1843190;77;25669;-77
2021/03/28 08:32:19;;;;;;;6.50;4.67;;;;;;;6.38;63.22;98461.13;1843062;77;25774;-79
2021/03/28 08:35:23;;;;;;;5.72;4.10;;;;;;;6.34;62.88;98460.59;1843001;77;25722;-79
2021/03/28 08:38:29;;;;;;;6.75;4.90;;;;;;;6.22;62.64;98467.22;1843131;77;25731;-79
2021/03/28 08:41:26;;;;;;;8.35;4.92;;;;;;;6.03;62.23;98465.61;1843094;77;27484;-79
2021/03/28 08:44:17;;;;;;;7.80;5.40;;;;;;;6.01;62.32;98472.95;1843055;77;25295;-79
2021/03/28 08:47:26;;;;;;;7.78;4.62;;;;;;;6.03;62.07;98475.48;1849514;76;26596;-81
2021/03/28 08:50:01;;;;;;;7.17;4.67;;;;;;;6.04;62.01;98473.95;1820199;78;25709;-82
2021/03/28 08:53:09;;;;;;;6.30;4.15;;;;;;;6.28;62.05;98473.81;1820190;78;27556;-80
2021/03/28 08:56:11;;;;;;;7.90;5.28;;;;;;;6.33;61.22;98479.02;1819883;78;25741;-83
2021/03/28 08:58:49;;;;;;;10.35;5.30;;;;;;;6.47;60.95;98476.25;1810074;78;26228;-78
2021/03/28 09:01:25;;;;;;;9.33;5.40;;;;;;;6.52;60.68;98477.13;1820141;78;25864;-79
2021/03/28 09:04:13;;;;;;;10.13;5.30;;;;;;;6.45;60.00;98479.09;1820221;78;25742;-79
2021/03/28 09:07:30;;;;;;;9.95;4.62;;;;;;;6.43;59.93;98485.61;1820226;78;28442;-79
2021/03/28 09:10:28;;;;;;;7.75;5.42;;;;;;;6.37;59.54;98484.92;1819992;78;26069;-78
2021/03/28 09:13:23;;;;;;;8.50;5.58;;;;;;;6.24;59.63;98493.88;1820107;78;25689;-82
2021/03/28 09:16:08;;;;;;;12.37;7.42;;;;;;;6.59;60.09;98483.02;1820125;78;25697;-81
2021/03/28 09:19:02;;;;;;;9.88;5.55;;;;;;;6.98;59.53;98487.89;1820086;78;25829;-80
2021/03/28 09:21:55;;;;;;;10.78;5.03;;;;;;;7.16;58.55;98488.61;1820092;78;27558;-80
2021/03/28 09:25:03;;;;;;;6.33;4.35;;;;;;;7.21;58.37;98493.84;1820148;78;25748;-81
2021/03/28 09:28:18;;;;;;;7.37;4.37;;;;;;;7.23;57.99;98493.18;1820059;78;25836;-79
2021/03/28 09:31:11;;;;;;;8.83;4.53;;;;;;;7.61;57.86;98489.53;1820006;77;25833;-78
2021/03/28 09:34:36;;;;;;;8.15;4.80;;;;;;;8.28;57.78;98488.36;1820224;78;25630;-82
2021/03/28 09:37:41;;;;;;;6.75;4.30;;;;;;;8.82;57.03;98487.72;1820028;78;28381;-79
2021/03/28 09:40:20;;;;;;;7.90;4.33;;;;;;;9.49;55.94;98482.69;1819895;78;26039;-80
2021/03/28 09:43:12;;;;;;;4.80;3.87;;;;;;;10.04;54.79;98483.77;1817990;78;25669;-80
2021/03/28 09:46:17;;;;;;;5.97;4.15;;;;;;;10.52;54.40;98478.96;1822280;78;25686;-79
2021/03/28 09:49:30;;;;;;;7.53;4.47;;;;;;;10.97;54.02;98478.80;1826174;78;25741;-79
2021/03/28 09:52:15;;;;;;;5.95;4.25;;;;;;;10.81;52.91;98489.79;1826183;78;28790;-81
2021/03/28 09:55:24;;;;;;;8.25;3.90;;;;;;;10.81;52.38;98480.34;1825439;78;25762;-78
2021/03/28 09:58:36;;;;;;;9.30;4.35;;;;;;;10.57;51.81;98489.55;1820289;78;25794;-81
2021/03/28 10:01:57;;;;;;;5.70;3.87;;;;;;;10.39;51.39;98485.00;1825770;77;26222;-79
2021/03/28 10:05:12;;;;;;;5.78;3.80;;;;;;;10.67;51.23;98486.57;1825614;78;25763;-81
2021/03/28 10:08:03;;;;;;;6.58;3.92;;;;;;;11.20;50.60;98489.48;1825493;77;27481;-81
2021/03/28 10:10:57;;;;;;;6.22;3.65;;;;;;;11.68;49.88;98481.70;1821997;78;25685;-79
2021/03/28 10:13:50;;;;;;;8.40;4.22;;;;;;;11.52;49.14;98480.08;1825454;78;25916;-79
2021/03/28 10:16:44;;;;;;;8.25;4.72;;;;;;;11.49;48.98;98479.09;1825494;78;25786;-79
2021/03/28 10:19:26;;;;;;;6.75;4.35;;;;;;;11.24;48.28;98489.41;1805594;79;25747;-80
2021/03/28 10:25:31;;;;;;;8.78;4.58;;;;;;;10.37;47.09;98490.61;1873477;76;26228;-79
2021/03/28 10:28:54;;;;;;;6.12;3.62;;;;;;;10.19;47.96;98481.99;1852817;77;25681;-80
2021/03/28 10:31:36;;;;;;;6.42;4.10;;;;;;;10.57;48.03;98476.56;1852833;76;28874;-77
2021/03/28 10:34:16;;;;;;;6.58;4.17;;;;;;;10.48;47.04;98477.67;1852664;77;32274;-80
2021/03/28 10:37:14;;;;;;;7.35;4.45;;;;;;;10.34;46.57;98485.57;1852351;76;25747;-79
2021/03/28 10:40:22;;;;;;;7.40;4.00;;;;;;;9.96;46.41;98484.70;1852748;77;25837;-79
2021/03/28 10:43:15;;;;;;;6.75;4.33;;;;;;;9.60;46.37;98480.42;1852000;77;25664;-80
2021/03/28 10:45:53;;;;;;;7.30;4.08;;;;;;;9.45;46.36;98474.11;1842036;77;26753;-79
2021/03/28 10:48:58;;;;;;;5.83;4.22;;;;;;;9.11;46.04;98474.48;1852602;77;25741;-78
2021/03/28 10:52:09;;;;;;;7.08;4.55;;;;;;;8.57;46.62;98477.58;1852688;77;25820;-80
2021/03/28 10:58:53;;;;;;;7.78;3.90;;;;;;;9.25;47.22;98479.63;1849234;75;25710;-80
2021/03/28 11:01:47;;;;;;;10.90;4.90;;;;;;;9.31;47.25;98481.60;1820153;78;25702;-82
2021/03/28 11:04:46;;;;;;;8.00;4.42;;;;;;;9.53;46.95;98481.33;1820162;78;27480;-82
2021/03/28 11:07:31;;;;;;;7.72;4.00;;;;;;;9.44;46.89;98475.13;1819995;78;25739;-81
2021/03/28 11:10:26;;;;;;;6.90;4.17;;;;;;;9.52;46.60;98471.56;1819992;78;25697;-80
2021/03/28 11:13:27;;;;;;;6.58;4.90;;;;;;;10.05;46.99;98465.22;1820046;78;25738;-82
2021/03/28 11:16:20;;;;;;;6.50;4.47;;;;;;;10.75;47.12;98468.91;1820194;78;25782;-81
2021/03/28 11:19:27;;;;;;;8.43;4.22;;;;;;;11.24;46.08;98471.00;1820108;78;27495;-81
2021/03/28 11:22:21;;;;;;;6.53;4.42;;;;;;;11.43;45.73;98463.14;1820088;78;25801;-81
2021/03/28 11:25:28;;;;;;;9.80;4.60;;;;;;;11.09;44.59;98465.14;1820087;78;25749;-80
2021/03/28 11:28:16;;;;;;;6.45;4.15;;;;;;;10.44;44.51;98463.19;1819992;78;25809;-81
2021/03/28 11:30:47;;;;;;;8.50;3.72;;;;;;;10.42;44.59;98463.88;1820080;78;25702;-79
2021/03/28 11:33:22;;;;;;;8.10;3.72;;;;;;;10.53;44.43;98457.70;1820075;77;27559;-81
2021/03/28 11:38:49;;;;;;;8.23;3.37;;;;;;;10.87;43.30;98462.02;1849470;76;25627;-80
2021/03/28 11:41:22;;;;;;;5.72;3.45;;;;;;;10.99;43.38;98450.25;1788028;77;25659;-78
2021/03/28 11:43:57;;;;;;;5.47;3.85;;;;;;;11.28;43.03;98452.03;1820219;78;27927;-80
2021/03/28 11:46:32;;;;;;;4.92;3.12;;;;;;;11.75;43.19;98451.02;1820195;78;25709;-79
2021/03/28 11:49:05;;;;;;;4.80;3.25;;;;;;;12.31;42.76;98448.39;1820179;78;26561;-79
2021/03/28 11:51:41;;;;;;;7.00;3.50;;;;;;;12.74;42.58;98445.01;1820101;78;25707;-82
2021/03/28 11:54:18;;;;;;;5.05;3.45;;;;;;;12.98;41.65;98444.51;1820265;77;25643;-82
2021/03/28 11:57:09;;;;;;;4.75;3.27;;;;;;;13.29;41.53;98441.84;1820062;78;27543;-80
2021/03/28 11:59:48;;;;;;;6.60;3.15;;;;;;;13.65;41.00;98445.06;1820134;77;25690;-82
2021/03/28 12:02:20;;;;;;;7.45;3.87;;;;;;;13.63;40.02;98439.55;1820169;78;25695;-79
2021/03/28 12:04:51;;;;;;;6.50;3.10;;;;;;;13.59;40.54;98427.43;1820195;77;25725;-80
2021/03/28 12:07:44;;;;;;;5.67;3.17;;;;;;;13.82;39.83;98430.59;1820123;78;25623;-82
2021/03/28 12:10:31;;;;;;;4.45;3.20;;;;;;;14.13;39.53;98428.61;1727751;81;27575;-80
2021/03/28 12:13:22;;;;;;;7.28;2.98;;;;;;;14.11;39.36;98428.53;1724962;81;25370;-83
2021/03/28 12:15:54;;;;;;;4.83;3.08;;;;;;;14.23;38.86;98418.19;1752030;81;26544;-82
2021/03/28 12:18:28;;;;;;;5.70;3.35;;;;;;;13.99;38.52;98423.73;1752791;81;25771;-81
2021/03/28 12:21:10;;;;;;;5.62;2.98;;;;;;;13.76;38.34;98419.75;1752679;81;25804;-81
2021/03/28 12:26:40;;;;;;;5.62;3.67;;;;;;;14.43;38.23;98410.56;1886931;76;25630;-77
2021/03/28 12:29:31;;;;;;;5.17;2.65;;;;;;;14.39;38.14;98409.62;1857868;77;25648;-79
2021/03/28 12:31:59;;;;;;;5.95;3.42;;;;;;;14.52;38.08;98412.00;1857450;77;28435;-81
2021/03/28 12:34:36;;;;;;;4.92;2.90;;;;;;;14.81;37.48;98410.16;1857715;77;26037;-79
2021/03/28 12:37:15;;;;;;;5.25;3.50;;;;;;;14.69;37.27;98407.27;1857894;77;25645;-81
2021/03/28 12:39:49;;;;;;;4.50;2.95;;;;;;;14.77;37.01;98405.67;1857766;77;25828;-82
2021/03/28 12:42:33;;;;;;;7.47;2.75;;;;;;;14.69;36.48;98396.92;1857865;77;25733;-82
2021/03/28 12:45:12;;;;;;;6.05;2.92;;;;;;;14.36;36.26;98403.77;1855281;77;27486;-82
2021/03/28 12:47:59;;;;;;;4.00;2.58;;;;;;;13.73;36.34;98410.14;1857859;77;25744;-81
2021/03/28 12:50:31;;;;;;;6.37;3.20;;;;;;;13.79;36.89;98412.00;1857824;77;25692;-84
2021/03/28 12:53:21;;;;;;;6.12;2.95;;;;;;;14.23;36.65;98403.26;1854340;77;25854;-82
2021/03/28 12:55:53;;;;;;;13.93;8.15;;;;;;;14.37;36.72;98405.41;1857698;77;25705;-82
2021/03/28 12:58:28;;;;;;;8.15;4.55;;;;;;;14.85;36.64;98391.55;1857769;77;28471;-81
2021/03/28 13:01:06;;;;;;;4.78;3.02;;;;;;;14.98;35.80;98395.55;1856626;77;26145;-82
2021/03/28 13:03:44;;;;;;;4.42;3.08;;;;;;;15.11;35.84;98396.86;1857795;77;25746;-82
2021/03/28 13:06:42;;;;;;;5.15;3.33;;;;;;;15.41;35.55;98393.05;1857654;77;25706;-83
2021/03/28 13:09:18;;;;;;;6.92;3.00;;;;;;;15.55;35.40;98382.96;1857826;77;25901;-83
2021/03/28 13:11:58;;;;;;;5.30;3.33;;;;;;;15.65;35.28;98392.83;1857646;77;27618;-80
2021/03/28 13:14:45;;;;;;;4.35;2.85;;;;;;;15.61;34.94;98386.15;1857730;77;25788;-82
2021/03/28 13:17:21;;;;;;;4.50;2.47;;;;;;;15.57;34.30;98387.14;1857806;77;26291;-82
2021/03/28 13:19:52;;;;;;;6.20;3.10;;;;;;;15.28;34.38;98386.33;1854304;77;25657;-82
2021/03/28 13:22:48;;;;;;;7.12;3.45;;;;;;;15.09;34.68;98386.19;1858092;77;25714;-82
2021/03/28 13:25:24;;;;;;;7.05;3.47;;;;;;;14.61;34.23;98384.38;1823809;75;27488;-83
2021/03/28 13:28:18;;;;;;;5.92;3.52;;;;;;;13.85;34.50;98390.00;1790786;80;25749;-81
2021/03/28 13:30:48;;;;;;;8.85;4.12;;;;;;;13.61;35.40;98394.99;1791108;80;25695;-83
2021/03/28 13:33:37;;;;;;;7.50;4.60;;;;;;;13.89;35.25;98388.00;1790958;80;25727;-83
2021/03/28 13:36:30;;;;;;;6.80;3.85;;;;;;;14.10;34.97;98387.49;1790821;80;25730;-82
2021/03/28 13:39:15;;;;;;;6.72;3.60;;;;;;;14.18;35.08;98382.67;1790624;80;28502;-83
2021/03/28 13:41:48;;;;;;;8.20;4.05;;;;;;;14.03;35.17;98392.91;1790477;80;25814;-83
2021/03/28 13:44:24;;;;;;;6.60;3.83;;;;;;;14.04;34.99;98382.36;1790480;80;26314;-81
2021/03/28 13:47:00;;;;;;;6.50;3.72;;;;;;;13.94;35.23;98384.16;1790476;80;26320;-82
2021/03/28 13:49:48;;;;;;;6.70;3.47;;;;;;;13.92;35.33;98379.45;1790519;80;25799;-81
2021/03/28 13:52:25;;;;;;;7.55;3.85;;;;;;;13.77;35.13;98385.59;1787000;80;26606;-80
2021/03/28 13:57:46;;;;;;;7.37;3.65;;;;;;;13.44;34.59;98382.02;1873354;76;25577;-78
2021/03/28 14:00:33;;;;;;;6.62;3.80;;;;;;;13.39;35.37;98384.52;1852694;77;25765;-80